Time;durP1;ratioP1;P1;durP2;ratioP2;P2;SDS_P1;SDS_P2;PMS_P1;PMS_P2;Temp;Humidity;BMP_temperature;BMP_pressure;BME280_temperature;BME280_humidity;BME280_pressure;Samples;Min_cycle;Max_cycle;Signal;HPM_P1;HPM_P2
2021/12/23 00:02:31;;;;;;;37.72;22.83;;;;;;;-1.68;60.50;98335.34;9808984;30;20071;-79
2021/12/23 00:07:52;;;;;;;40.00;22.30;;;;;;;-1.83;60.68;98319.16;9808610;30;20052;-79
2021/12/23 00:13:13;;;;;;;37.25;21.42;;;;;;;-1.82;60.56;98321.41;9820701;30;20059;-79
2021/12/23 00:23:59;;;;;;;38.58;21.55;;;;;;;-1.98;62.09;98324.13;9809549;30;20056;-79
2021/12/23 00:29:21;;;;;;;40.53;23.00;;;;;;;-1.97;61.25;98325.59;9827741;30;20048;-79
2021/12/23 00:34:41;;;;;;;39.95;23.75;;;;;;;-2.11;62.41;98314.41;9803397;30;20056;-79
2021/12/23 00:40:03;;;;;;;39.75;23.08;;;;;;;-2.23;61.57;98318.34;9814886;30;20052;-79
2021/12/23 00:45:24;;;;;;;45.95;26.02;;;;;;;-2.34;62.19;98299.19;9802981;30;20051;-79
2021/12/23 00:50:46;;;;;;;40.40;23.17;;;;;;;-2.27;62.21;98292.50;9802684;30;20466;-79
2021/12/23 00:56:10;;;;;;;42.80;24.65;;;;;;;-2.25;62.11;98287.25;9802615;30;20588;-79
2021/12/23 01:01:31;;;;;;;46.80;26.20;;;;;;;-2.27;63.34;98270.63;9815419;30;20079;-79
2021/12/23 01:06:52;;;;;;;39.00;23.15;;;;;;;-2.38;62.63;98282.28;9815020;30;20492;-79
2021/12/23 01:12:16;;;;;;;43.60;23.35;;;;;;;-2.40;62.67;98284.78;9814522;30;20056;-79
2021/12/23 01:23:27;;;;;;;38.85;21.60;;;;;;;-2.34;62.82;98283.53;9818371;30;20067;-79
2021/12/23 01:28:51;;;;;;;39.25;23.83;;;;;;;-2.33;62.67;98276.06;9801596;30;20048;-79
2021/12/23 01:34:12;;;;;;;40.53;23.38;;;;;;;-2.37;62.99;98267.38;9814145;30;20416;-79
2021/12/23 01:39:33;;;;;;;38.53;22.98;;;;;;;-2.46;63.28;98259.41;9801589;30;20052;-79
2021/12/23 01:44:53;;;;;;;39.45;22.90;;;;;;;-2.54;63.13;98270.06;9799181;30;20118;-79
2021/12/23 01:50:15;;;;;;;37.08;22.48;;;;;;;-2.58;63.33;98258.63;9813254;30;20411;-79
2021/12/23 01:55:37;;;;;;;40.60;22.65;;;;;;;-2.62;63.38;98269.78;9813138;30;20491;-79
2021/12/23 02:00:58;;;;;;;40.42;24.75;;;;;;;-2.63;63.38;98249.16;9813031;30;20503;-79
2021/12/23 02:06:20;;;;;;;36.47;21.35;;;;;;;-2.50;63.45;98245.22;9800248;30;20059;-79
2021/12/23 02:11:41;;;;;;;37.63;21.35;;;;;;;-2.39;63.27;98223.38;9812512;30;20052;-79
2021/12/23 02:17:02;;;;;;;37.05;21.70;;;;;;;-2.33;63.11;98215.91;9800018;30;20065;-79
2021/12/23 02:22:24;;;;;;;35.40;20.08;;;;;;;-2.41;62.24;98209.47;9811836;30;20393;-79
2021/12/23 02:27:44;;;;;;;35.42;21.13;;;;;;;-2.53;62.91;98197.00;9799329;30;20403;-79
2021/12/23 02:33:06;;;;;;;35.58;21.02;;;;;;;-2.63;63.09;98182.81;9799608;30;20052;-79
2021/12/23 02:38:27;;;;;;;36.72;21.58;;;;;;;-2.70;62.88;98184.06;9799310;30;20049;-79
2021/12/23 02:43:48;;;;;;;35.72;21.75;;;;;;;-2.70;63.31;98178.59;9811273;30;20056;-79
2021/12/23 02:49:09;;;;;;;34.80;21.48;;;;;;;-2.74;63.54;98164.41;9810748;30;20048;-79
2021/12/23 02:54:31;;;;;;;36.13;20.60;;;;;;;-2.81;63.71;98153.97;9811002;30;20396;-79
2021/12/23 02:59:53;;;;;;;39.33;21.83;;;;;;;-2.93;63.48;98147.00;9810925;30;20060;-79
2021/12/23 03:05:13;;;;;;;38.00;22.70;;;;;;;-3.06;63.84;98130.34;9810293;30;20055;-79
2021/12/23 03:10:34;;;;;;;37.78;22.50;;;;;;;-3.17;64.29;98112.69;9798272;30;20064;-79
2021/12/23 03:15:55;;;;;;;34.33;21.30;;;;;;;-3.27;64.28;98129.78;9810108;30;20075;-79
2021/12/23 03:21:16;;;;;;;40.53;22.80;;;;;;;-3.16;64.09;98124.38;9809815;30;20514;-79
2021/12/23 03:26:36;;;;;;;37.75;22.02;;;;;;;-3.08;64.31;98125.38;9797855;30;20064;-79
2021/12/23 03:31:57;;;;;;;35.30;21.42;;;;;;;-3.09;64.20;98112.94;9810389;30;20462;-79
2021/12/23 03:37:18;;;;;;;39.00;21.55;;;;;;;-3.04;64.01;98114.19;9796551;30;20048;-79
2021/12/23 03:42:39;;;;;;;37.45;19.85;;;;;;;-3.15;64.90;98100.53;9783858;30;20051;-79
2021/12/23 03:48:00;;;;;;;39.33;23.23;;;;;;;-3.22;65.21;98090.81;9786332;30;20044;-78
2021/12/23 03:53:21;;;;;;;38.85;22.20;;;;;;;-3.28;65.00;98090.06;9775512;30;20122;-79
2021/12/23 03:58:42;;;;;;;35.83;20.48;;;;;;;-3.25;64.90;98084.38;9789441;30;20494;-79
2021/12/23 04:04:03;;;;;;;35.47;21.40;;;;;;;-3.24;64.67;98079.66;9787187;30;20492;-79
2021/12/23 04:09:30;;;;;;;35.17;19.42;;;;;;;-3.23;65.08;98076.44;9789107;30;20381;-79
2021/12/23 04:14:52;;;;;;;33.33;18.58;;;;;;;-3.14;64.85;98067.25;9797742;30;20052;-78
2021/12/23 04:20:30;;;;;;;36.22;19.73;;;;;;;-3.15;65.11;98065.03;9795231;30;20059;-79
2021/12/23 04:25:52;;;;;;;32.78;19.00;;;;;;;-3.19;64.79;98049.63;9778199;30;20049;-78
2021/12/23 04:31:17;;;;;;;40.70;20.25;;;;;;;-3.14;65.13;98039.22;9760174;30;20053;-78
2021/12/23 04:36:38;;;;;;;35.85;20.85;;;;;;;-3.29;65.56;98023.78;9760363;30;20057;-78
2021/12/23 04:41:59;;;;;;;34.83;20.50;;;;;;;-3.28;65.29;98013.59;9771753;30;20067;-79
2021/12/23 04:47:20;;;;;;;33.47;20.58;;;;;;;-3.31;65.39;98003.69;9787471;30;20055;-79
2021/12/23 04:52:41;;;;;;;36.60;20.50;;;;;;;-3.44;65.15;97996.00;9788624;30;20068;-78
2021/12/23 04:58:02;;;;;;;38.17;22.17;;;;;;;-3.36;65.22;98009.91;9788214;30;20053;-79
2021/12/23 05:03:23;;;;;;;32.55;18.75;;;;;;;-3.31;65.49;98001.69;9776026;30;20053;-79
2021/12/23 05:08:44;;;;;;;39.13;21.30;;;;;;;-3.34;65.64;97997.25;9786417;30;20505;-79
2021/12/23 05:14:05;;;;;;;35.30;20.23;;;;;;;-3.43;65.48;97986.56;9779192;30;20053;-79
2021/12/23 05:19:27;;;;;;;35.30;19.70;;;;;;;-3.41;65.72;97980.59;9796107;30;20400;-79
2021/12/23 05:24:48;;;;;;;40.65;22.60;;;;;;;-3.39;66.60;97975.38;9792619;30;20060;-79
2021/12/23 05:30:12;;;;;;;36.47;21.08;;;;;;;-3.61;66.02;97954.28;9782519;30;20060;-79
2021/12/23 05:35:32;;;;;;;33.25;20.05;;;;;;;-3.58;67.08;97959.47;9783036;30;20041;-79
2021/12/23 05:40:56;;;;;;;34.65;20.52;;;;;;;-3.47;66.40;97956.03;9792304;30;20060;-78
2021/12/23 05:46:17;;;;;;;32.50;18.55;;;;;;;-3.41;66.22;97956.03;9781725;30;20045;-78
2021/12/23 05:51:39;;;;;;;34.10;19.85;;;;;;;-3.31;65.93;97949.09;9792003;30;20060;-78
2021/12/23 05:57:02;;;;;;;32.55;18.88;;;;;;;-3.31;66.66;97943.63;9794646;30;20045;-78
2021/12/23 06:02:22;;;;;;;35.67;20.00;;;;;;;-3.23;66.00;97934.44;9790981;30;20087;-78
2021/12/23 06:07:44;;;;;;;31.13;19.35;;;;;;;-3.21;66.02;97921.03;9791066;30;20055;-78
2021/12/23 06:13:05;;;;;;;31.83;19.17;;;;;;;-3.17;66.16;97915.34;9824559;30;20051;-78
2021/12/23 06:18:26;;;;;;;30.35;18.52;;;;;;;-3.21;66.36;97899.19;9800027;30;20125;-79
2021/12/23 06:23:47;;;;;;;34.88;20.35;;;;;;;-3.22;66.06;97892.25;9823067;30;20055;-78
2021/12/23 06:29:08;;;;;;;33.67;19.50;;;;;;;-3.27;66.08;97905.91;9799641;30;20044;-78
2021/12/23 06:34:30;;;;;;;31.10;18.70;;;;;;;-3.20;66.18;97891.75;9799651;30;20052;-78
2021/12/23 06:39:51;;;;;;;32.22;20.38;;;;;;;-3.20;66.31;97887.03;9798940;30;20813;-78
2021/12/23 06:45:12;;;;;;;34.50;18.60;;;;;;;-3.14;65.77;97887.03;9811467;30;20139;-78
2021/12/23 06:50:34;;;;;;;30.50;17.30;;;;;;;-3.10;66.48;97886.75;9811594;30;20527;-78
2021/12/23 06:55:55;;;;;;;26.27;17.45;;;;;;;-3.01;66.12;97894.69;9809159;30;20280;-78
2021/12/23 07:01:18;;;;;;;26.17;16.88;;;;;;;-2.96;66.36;97897.44;9798691;30;20090;-78
2021/12/23 07:06:46;;;;;;;30.15;19.35;;;;;;;-2.88;66.41;97901.16;9810899;30;20090;-78
2021/12/23 07:12:08;;;;;;;28.02;16.88;;;;;;;-2.84;66.01;97892.69;9811420;30;20048;-78
2021/12/23 07:17:29;;;;;;;29.55;17.88;;;;;;;-2.81;66.00;97891.66;9810181;30;20051;-78
2021/12/23 07:22:50;;;;;;;28.13;17.67;;;;;;;-2.79;66.19;97888.47;9809937;30;20044;-78
2021/12/23 07:28:11;;;;;;;28.10;16.73;;;;;;;-2.71;66.52;97898.34;9822402;30;20052;-78
2021/12/23 07:33:34;;;;;;;26.58;17.70;;;;;;;-2.52;66.07;97900.53;9809930;30;20083;-78
2021/12/23 07:38:56;;;;;;;30.63;17.88;;;;;;;-2.42;66.55;97882.59;9821422;30;20492;-78
2021/12/23 07:44:22;;;;;;;30.67;18.73;;;;;;;-2.49;66.13;97872.22;9808879;30;20084;-78
2021/12/23 07:49:43;;;;;;;29.55;18.65;;;;;;;-2.60;66.15;97868.28;9798459;30;20048;-77
2021/12/23 07:55:05;;;;;;;30.38;17.98;;;;;;;-2.39;66.26;97862.47;9808927;30;20048;-78
2021/12/23 08:00:29;;;;;;;34.70;19.70;;;;;;;-2.15;66.44;97861.84;9797013;30;20068;-79
2021/12/23 08:05:52;;;;;;;35.63;19.75;;;;;;;-2.11;65.75;97867.78;9810104;30;20411;-78
2021/12/23 08:11:13;;;;;;;32.25;19.15;;;;;;;-1.95;65.42;97863.47;9797775;30;20496;-78
2021/12/23 08:16:33;;;;;;;27.02;17.42;;;;;;;-1.82;65.96;97858.91;9796861;30;20123;-78
2021/12/23 08:21:54;;;;;;;32.45;19.08;;;;;;;-1.75;65.69;97854.84;9809440;30;20052;-78
2021/12/23 08:27:15;;;;;;;32.25;18.67;;;;;;;-1.59;65.72;97859.47;9796852;30;20052;-78
2021/12/23 08:32:36;;;;;;;32.85;20.23;;;;;;;-1.56;65.31;97852.97;9796477;30;20056;-78
2021/12/23 08:37:57;;;;;;;34.00;20.45;;;;;;;-1.52;64.65;97844.50;9796809;30;20056;-78
2021/12/23 08:43:20;;;;;;;32.10;20.25;;;;;;;-1.42;64.29;97853.13;9808767;30;20131;-78
2021/12/23 08:48:41;;;;;;;32.08;21.25;;;;;;;-1.30;64.47;97843.53;9828347;30;20055;-79
2021/12/23 08:54:02;;;;;;;31.98;19.10;;;;;;;-1.15;64.87;97824.72;9807059;30;20048;-78
2021/12/23 08:59:26;;;;;;;30.58;19.05;;;;;;;-0.90;64.26;97833.69;9805984;30;20059;-78
2021/12/23 09:04:47;;;;;;;29.88;20.02;;;;;;;-0.94;63.57;97803.81;9815314;30;20052;-78
2021/12/23 09:10:09;;;;;;;35.65;22.48;;;;;;;-1.11;63.65;97791.56;9815304;30;20052;-78
2021/12/23 09:15:30;;;;;;;35.90;21.02;;;;;;;-1.19;63.63;97796.88;9802879;30;20135;-78
2021/12/23 09:20:51;;;;;;;34.30;22.75;;;;;;;-1.17;63.79;97786.13;9814999;30;20055;-79
2021/12/23 09:26:12;;;;;;;31.92;19.63;;;;;;;-1.03;64.46;97785.00;9815436;30;20048;-79
2021/12/23 09:37:13;;;;;;;35.47;21.27;;;;;;;-0.65;64.29;97812.47;9816622;30;20052;-79
2021/12/23 09:42:34;;;;;;;31.52;21.05;;;;;;;-0.37;64.08;97815.59;9814125;30;20059;-78
2021/12/23 09:47:56;;;;;;;34.97;20.77;;;;;;;-0.14;64.42;97798.81;9826308;30;20055;-79
2021/12/23 09:53:19;;;;;;;35.22;22.80;;;;;;;-0.21;61.99;97764.47;9805697;30;20114;-79
2021/12/23 09:58:40;;;;;;;37.10;22.85;;;;;;;-0.45;62.48;97754.38;9841753;30;20067;-81
2021/12/23 10:04:02;;;;;;;36.65;23.23;;;;;;;-0.64;63.01;97742.66;10093053;24;20061;-82
2021/12/23 10:09:41;;;;;;;40.33;24.52;;;;;;;-0.69;63.00;97751.69;9795883;30;20510;-78
2021/12/23 10:38:08;;;;;;;37.70;23.35;;;;;;;-0.75;63.87;97680.50;9844975;30;20048;-82
2021/12/23 10:43:37;;;;;;;37.65;22.95;;;;;;;-0.59;63.64;97689.75;9851823;30;20461;-80
2021/12/23 10:49:23;;;;;;;34.22;21.60;;;;;;;-0.67;62.97;97677.91;9857947;30;20056;-84
2021/12/23 11:00:20;;;;;;;35.88;21.38;;;;;;;-0.68;63.46;97673.66;9889798;30;20032;-85
2021/12/23 11:05:54;;;;;;;35.65;22.25;;;;;;;-0.56;63.50;97653.06;9891687;29;20121;-77
2021/12/23 11:11:37;;;;;;;35.45;21.98;;;;;;;-0.47;63.30;97666.41;9887484;30;20062;-77
2021/12/23 11:45:38;;;;;;;36.75;23.20;;;;;;;0.38;61.60;97578.56;9847002;30;20059;-81
2021/12/23 11:51:15;;;;;;;33.90;21.80;;;;;;;0.38;61.79;97575.06;9854914;30;20059;-77
2021/12/23 11:56:38;;;;;;;33.95;22.33;;;;;;;0.13;60.88;97558.09;9854865;30;20051;-78
2021/12/23 12:01:59;;;;;;;31.85;21.27;;;;;;;-0.04;61.27;97544.69;9859488;30;20108;-78
2021/12/23 12:07:21;;;;;;;38.42;22.48;;;;;;;-0.16;62.19;97526.97;9860508;30;20059;-78
2021/12/23 12:13:02;;;;;;;34.40;22.00;;;;;;;-0.20;61.95;97515.56;9860765;30;20475;-79
2021/12/23 12:18:38;;;;;;;33.28;21.95;;;;;;;-0.22;62.33;97490.66;9876995;30;20044;-78
2021/12/23 12:30:21;;;;;;;35.42;22.65;;;;;;;-0.20;62.78;97466.19;10252075;24;20060;-85
2021/12/23 12:35:53;;;;;;;32.78;22.55;;;;;;;-0.21;62.18;97451.00;9907475;30;20035;-84
2021/12/23 12:41:23;;;;;;;32.35;21.00;;;;;;;-0.01;62.17;97442.09;9853333;30;20113;-77
2021/12/23 12:47:03;;;;;;;33.42;20.85;;;;;;;0.14;62.10;97460.75;9870615;30;20067;-77
2021/12/23 12:52:26;;;;;;;29.30;20.42;;;;;;;0.29;62.23;97463.69;9887473;30;20112;-77
2021/12/23 12:58:02;;;;;;;31.27;20.00;;;;;;;0.45;62.01;97440.59;9863968;30;20051;-77
2021/12/23 13:03:25;;;;;;;34.35;21.75;;;;;;;0.59;60.97;97437.81;9874751;30;20109;-77
2021/12/23 13:08:46;;;;;;;31.60;20.98;;;;;;;0.55;60.75;97422.41;9821285;30;20075;-77
2021/12/23 13:15:16;;;;;;;30.58;21.17;;;;;;;0.46;60.64;97430.34;9830636;30;20064;-76
2021/12/23 13:21:05;;;;;;;31.35;20.52;;;;;;;0.53;61.10;97430.44;9824365;30;20048;-76
2021/12/23 13:26:26;;;;;;;31.48;19.17;;;;;;;0.55;60.35;97438.13;9837234;30;20128;-77
2021/12/23 13:31:48;;;;;;;31.65;19.75;;;;;;;0.51;60.79;97429.50;9813448;30;20056;-77
2021/12/23 13:37:09;;;;;;;30.00;19.77;;;;;;;0.54;60.83;97420.19;9822912;30;20405;-77
2021/12/23 13:42:30;;;;;;;31.38;19.98;;;;;;;0.39;61.26;97406.31;9824975;30;20452;-77
2021/12/23 13:47:52;;;;;;;29.40;19.35;;;;;;;0.37;61.01;97401.34;9832556;30;20048;-77
2021/12/23 13:53:16;;;;;;;31.02;20.38;;;;;;;0.34;60.73;97382.47;9838066;30;20056;-78
2021/12/23 13:58:36;;;;;;;29.75;19.60;;;;;;;0.37;61.00;97370.41;9840652;30;20408;-79
2021/12/23 14:03:58;;;;;;;32.40;21.25;;;;;;;0.19;60.86;97353.59;9832529;30;20052;-78
2021/12/23 14:09:29;;;;;;;28.73;19.15;;;;;;;0.20;61.27;97360.56;9835403;30;20147;-78
2021/12/23 14:14:56;;;;;;;31.25;19.33;;;;;;;0.11;61.26;97363.03;9831896;30;20404;-78
2021/12/23 14:26:22;;;;;;;30.85;20.48;;;;;;;0.08;61.02;97340.09;9821930;30;20064;-77
2021/12/23 14:31:44;;;;;;;28.08;18.92;;;;;;;0.05;61.25;97335.69;9830026;30;20059;-77
2021/12/23 14:37:07;;;;;;;30.17;19.58;;;;;;;0.04;61.19;97328.00;9820207;30;20109;-77
2021/12/23 14:42:29;;;;;;;37.03;22.17;;;;;;;0.05;61.34;97302.75;9834267;30;20052;-77
2021/12/23 14:48:09;;;;;;;31.90;20.55;;;;;;;0.03;61.33;97305.31;9839938;30;20044;-77
2021/12/23 14:53:30;;;;;;;30.90;19.17;;;;;;;-0.03;61.42;97282.75;9855915;30;20109;-77
2021/12/23 14:59:12;;;;;;;32.00;20.77;;;;;;;-0.05;61.56;97285.28;9823096;30;20437;-77
2021/12/23 15:04:33;;;;;;;29.58;18.20;;;;;;;-0.03;61.08;97258.78;9806735;30;20052;-77
2021/12/23 15:09:58;;;;;;;33.45;20.50;;;;;;;-0.19;61.29;97246.22;9810598;30;20059;-77
2021/12/23 15:15:31;;;;;;;31.48;20.23;;;;;;;-0.27;61.19;97242.66;9833324;30;20139;-77
2021/12/23 15:20:54;;;;;;;31.92;18.80;;;;;;;-0.23;61.70;97234.81;9817032;30;20499;-77
2021/12/23 15:26:29;;;;;;;33.05;18.80;;;;;;;-0.25;61.56;97237.38;9832407;30;20081;-77
2021/12/23 15:32:11;;;;;;;28.90;18.73;;;;;;;-0.26;61.48;97232.41;9809968;30;20055;-77
2021/12/23 15:37:36;;;;;;;33.35;20.63;;;;;;;-0.26;61.60;97215.97;9799532;30;20113;-77
2021/12/23 15:43:01;;;;;;;29.48;17.45;;;;;;;-0.29;61.73;97220.47;9810422;30;20055;-77
2021/12/23 15:48:22;;;;;;;32.65;19.45;;;;;;;-0.21;61.56;97204.09;9810292;30;20488;-77
2021/12/23 15:53:43;;;;;;;37.55;20.80;;;;;;;-0.16;62.04;97201.25;9810889;30;20060;-77
2021/12/23 15:59:04;;;;;;;30.92;19.90;;;;;;;-0.19;61.71;97199.56;9797559;30;20059;-77
2021/12/23 16:04:26;;;;;;;33.42;19.20;;;;;;;-0.14;61.30;97195.22;9809306;30;20075;-77
2021/12/23 16:09:51;;;;;;;32.22;19.83;;;;;;;-0.10;62.06;97179.13;9810963;30;20048;-77
2021/12/23 16:15:14;;;;;;;32.67;19.13;;;;;;;0.02;61.87;97185.84;9797399;30;20044;-77
2021/12/23 16:20:35;;;;;;;31.27;18.85;;;;;;;0.06;61.77;97201.97;9797557;30;20053;-77
2021/12/23 16:25:56;;;;;;;29.80;17.90;;;;;;;0.12;61.51;97192.31;9796787;30;20135;-77
2021/12/23 16:31:17;;;;;;;30.65;18.08;;;;;;;0.17;61.61;97188.69;9760962;30;20497;-77
2021/12/23 16:36:40;;;;;;;33.55;20.52;;;;;;;0.23;61.50;97183.81;9772770;30;20493;-78
2021/12/23 16:42:01;;;;;;;30.83;19.55;;;;;;;0.35;61.63;97197.22;9800470;30;20397;-78
2021/12/23 16:47:22;;;;;;;31.73;19.13;;;;;;;0.42;61.59;97182.81;9805030;30;20090;-77
2021/12/23 16:52:47;;;;;;;27.50;18.40;;;;;;;0.45;61.49;97151.53;9830330;30;20059;-77
2021/12/23 16:58:12;;;;;;;28.63;18.00;;;;;;;0.51;61.69;97141.88;9808482;30;20048;-78
2021/12/23 17:03:33;;;;;;;30.27;19.08;;;;;;;0.50;61.59;97117.69;9820435;30;20044;-77
2021/12/23 17:08:55;;;;;;;29.98;18.73;;;;;;;0.49;60.86;97116.22;9812757;30;20048;-77
2021/12/23 17:14:16;;;;;;;31.27;19.67;;;;;;;0.42;60.89;97116.91;9827305;30;20064;-77
2021/12/23 17:19:44;;;;;;;30.65;19.17;;;;;;;0.51;61.62;97108.19;9814737;30;20048;-77
2021/12/23 17:25:06;;;;;;;32.03;19.30;;;;;;;0.52;61.12;97093.16;9815131;30;20109;-77
2021/12/23 17:30:28;;;;;;;30.38;17.92;;;;;;;0.56;61.66;97101.78;9826359;30;20060;-78
2021/12/23 17:35:52;;;;;;;30.27;18.92;;;;;;;0.67;61.61;97101.47;9826399;30;20446;-77
2021/12/23 17:41:14;;;;;;;29.57;18.17;;;;;;;0.76;61.37;97067.25;9814224;30;20446;-77
2021/12/23 17:46:35;;;;;;;28.98;18.35;;;;;;;0.75;61.32;97038.31;9813718;30;20282;-77
2021/12/23 17:51:56;;;;;;;29.60;17.60;;;;;;;0.82;61.38;97038.31;9825980;30;20059;-77
2021/12/23 17:57:22;;;;;;;29.17;17.48;;;;;;;0.86;61.09;97011.22;9827126;30;20044;-81
2021/12/23 18:02:43;;;;;;;28.33;18.52;;;;;;;0.93;61.30;96995.31;9798708;30;20059;-79
2021/12/23 18:08:04;;;;;;;25.83;16.08;;;;;;;1.01;61.42;97004.28;9780295;30;20048;-79
2021/12/23 18:13:26;;;;;;;25.70;15.65;;;;;;;1.10;61.09;96984.50;9807110;30;20164;-82
2021/12/23 18:18:47;;;;;;;29.58;17.50;;;;;;;1.16;61.23;96963.06;9836074;30;20063;-83
2021/12/23 18:24:08;;;;;;;28.65;17.08;;;;;;;1.17;60.98;96963.81;9827078;30;20062;-82
2021/12/23 18:29:30;;;;;;;26.45;15.68;;;;;;;1.21;61.09;96950.41;9811403;30;20072;-79
2021/12/23 18:34:53;;;;;;;28.23;17.48;;;;;;;1.19;61.13;96923.47;9792219;30;20047;-77
2021/12/23 18:40:19;;;;;;;29.65;16.38;;;;;;;1.24;60.93;96917.03;9791033;30;20052;-77
2021/12/23 18:45:41;;;;;;;29.27;16.85;;;;;;;1.40;61.00;96896.50;9832867;30;20067;-79
2021/12/23 18:51:02;;;;;;;26.35;15.38;;;;;;;1.52;61.01;96869.31;9775331;30;20048;-79
2021/12/23 18:56:29;;;;;;;22.40;14.15;;;;;;;1.62;60.91;96858.47;9781769;30;20082;-81
2021/12/23 19:01:56;;;;;;;23.02;14.50;;;;;;;1.75;61.18;96855.50;9805601;30;20072;-79
2021/12/23 19:07:17;;;;;;;24.85;14.63;;;;;;;1.86;60.67;96851.59;9787402;30;20048;-79
2021/12/23 19:12:38;;;;;;;23.27;14.95;;;;;;;1.95;61.12;96848.25;9795874;30;20060;-80
2021/12/23 19:18:01;;;;;;;22.02;14.90;;;;;;;2.04;60.97;96844.91;9799851;30;20140;-81
2021/12/23 19:23:21;;;;;;;23.73;15.32;;;;;;;2.06;60.95;96831.31;9812080;30;20055;-81
2021/12/23 19:28:42;;;;;;;24.45;14.57;;;;;;;2.13;61.10;96822.28;9802450;30;20075;-80
2021/12/23 19:34:05;;;;;;;24.80;15.25;;;;;;;2.20;61.25;96824.25;9816116;30;20057;-81
2021/12/23 19:39:28;;;;;;;22.27;14.48;;;;;;;2.25;61.51;96823.28;9809837;30;20048;-81
2021/12/23 19:44:49;;;;;;;21.88;14.85;;;;;;;2.33;61.92;96825.28;9815485;30;20056;-82
2021/12/23 19:50:11;;;;;;;26.08;15.20;;;;;;;2.37;61.91;96807.06;9813761;30;20111;-82
2021/12/23 19:55:32;;;;;;;24.58;15.15;;;;;;;2.44;62.74;96808.31;9817683;30;20123;-82
2021/12/23 20:00:53;;;;;;;25.02;15.88;;;;;;;2.50;61.96;96784.72;9827303;30;20029;-84
2021/12/23 20:06:14;;;;;;;22.50;14.63;;;;;;;2.52;62.51;96782.16;9825528;30;20052;-80
2021/12/23 20:11:35;;;;;;;23.27;15.25;;;;;;;2.53;64.28;96763.59;9807541;30;20053;-80
2021/12/23 20:16:56;;;;;;;21.67;13.73;;;;;;;2.51;64.38;96758.66;9781815;30;20049;-80
2021/12/23 20:22:17;;;;;;;22.17;14.40;;;;;;;2.51;65.18;96755.16;9805870;30;20469;-80
2021/12/23 20:27:39;;;;;;;22.80;14.52;;;;;;;2.50;65.34;96754.41;9809442;30;20052;-80
2021/12/23 20:33:00;;;;;;;21.85;14.73;;;;;;;2.44;66.36;96750.44;9802392;30;20059;-80
2021/12/23 20:38:22;;;;;;;27.08;15.32;;;;;;;2.42;66.37;96728.25;9796564;30;20059;-80
2021/12/23 20:43:43;;;;;;;23.58;15.23;;;;;;;2.38;67.22;96719.66;9806809;30;20049;-79
2021/12/23 20:49:03;;;;;;;24.73;15.68;;;;;;;2.39;66.35;96730.09;9815399;30;20128;-81
2021/12/23 20:54:37;;;;;;;27.38;17.25;;;;;;;2.36;68.04;96714.72;9812142;30;20064;-80
2021/12/23 20:59:59;;;;;;;24.17;15.35;;;;;;;2.36;68.92;96717.47;9798384;30;20064;-82
2021/12/23 21:05:23;;;;;;;24.63;15.45;;;;;;;2.40;68.03;96722.56;9816484;30;20053;-82
2021/12/23 21:10:44;;;;;;;23.17;15.38;;;;;;;2.45;68.03;96711.31;9806039;30;20419;-78
2021/12/23 21:16:18;;;;;;;25.60;16.95;;;;;;;2.47;68.82;96714.22;9790935;30;20048;-77
2021/12/23 21:21:41;;;;;;;27.30;15.70;;;;;;;2.46;68.50;96715.53;9777635;30;20488;-77
2021/12/23 21:27:02;;;;;;;26.42;15.85;;;;;;;2.49;69.06;96717.16;9788599;30;20485;-78
2021/12/23 21:32:23;;;;;;;25.92;17.00;;;;;;;2.48;69.34;96706.69;9786700;30;20715;-77
2021/12/23 21:37:44;;;;;;;24.30;16.08;;;;;;;2.52;68.98;96690.50;9777158;30;20056;-79
2021/12/23 21:43:05;;;;;;;28.70;17.30;;;;;;;2.55;69.59;96667.34;9777375;30;20068;-77
2021/12/23 21:48:27;;;;;;;25.67;16.83;;;;;;;2.50;70.40;96671.78;9789231;30;20401;-78
2021/12/23 21:53:51;;;;;;;25.33;15.63;;;;;;;2.54;70.06;96652.09;9776622;30;20485;-78
2021/12/23 21:59:12;;;;;;;26.70;16.25;;;;;;;2.53;70.40;96634.84;9785823;30;20056;-78
2021/12/23 22:04:33;;;;;;;22.80;15.70;;;;;;;2.59;71.15;96615.31;9814915;30;20056;-77
2021/12/23 22:09:53;;;;;;;24.38;15.55;;;;;;;2.59;71.23;96607.75;9798534;30;20052;-78
2021/12/23 22:15:19;;;;;;;23.08;15.27;;;;;;;2.69;71.43;96601.59;9813495;30;20052;-77
2021/12/23 22:20:40;;;;;;;21.63;14.80;;;;;;;2.74;71.65;96603.38;9824962;30;20053;-77
2021/12/23 22:26:02;;;;;;;24.17;15.95;;;;;;;2.78;72.16;96626.47;9812399;30;20055;-77
2021/12/23 22:31:23;;;;;;;22.70;14.40;;;;;;;2.79;72.06;96602.41;9892396;30;20063;-77
2021/12/23 22:36:44;;;;;;;22.58;14.68;;;;;;;2.81;72.58;96591.56;9897988;30;20055;-77
2021/12/23 22:42:05;;;;;;;23.75;15.70;;;;;;;2.82;72.19;96588.22;9885089;30;20479;-77
2021/12/23 22:47:26;;;;;;;22.10;14.90;;;;;;;2.84;72.34;96585.63;9884903;30;20115;-77
2021/12/23 22:52:50;;;;;;;21.67;14.88;;;;;;;2.86;72.54;96568.50;9885527;30;20058;-77
2021/12/23 22:58:10;;;;;;;20.88;13.85;;;;;;;2.91;71.97;96570.28;9884778;30;20043;-77
2021/12/23 23:03:32;;;;;;;24.52;15.35;;;;;;;2.98;72.35;96555.66;9895989;29;20043;-77
2021/12/23 23:08:53;;;;;;;23.23;13.98;;;;;;;3.03;72.82;96554.69;9896641;30;20043;-77
2021/12/23 23:19:43;;;;;;;20.67;14.10;;;;;;;3.09;72.25;96554.44;9897052;30;20051;-77
2021/12/23 23:25:13;;;;;;;19.73;13.00;;;;;;;3.13;72.80;96527.88;9896005;30;20498;-77
2021/12/23 23:36:17;;;;;;;21.23;13.60;;;;;;;3.15;72.97;96554.88;9886107;30;20138;-77
2021/12/23 23:41:38;;;;;;;25.10;14.63;;;;;;;3.14;73.33;96543.13;9883769;30;20100;-77
2021/12/23 23:47:03;;;;;;;21.35;14.00;;;;;;;3.14;73.70;96543.13;9895180;30;20380;-77
2021/12/23 23:52:24;;;;;;;20.48;13.98;;;;;;;3.22;74.15;96534.75;9882954;30;20055;-77
2021/12/23 23:57:49;;;;;;;19.48;13.40;;;;;;;3.33;73.97;96522.44;9883057;30;20043;-78
